sensor_id;sensor_type;location;lat;lon;timestamp;pressure;altitude;pressure_sealevel;temperature;humidity
14120;BME280;7138;49.246;9.100;2023-08-12T00:00:29;98942.56;;;22.88;91.14
14120;BME280;7138;49.246;9.100;2023-08-12T00:02:55;98941.78;;;22.85;91.49
14120;BME280;7138;49.246;9.100;2023-08-12T00:05:22;98935.69;;;22.83;92.03
14120;BME280;7138;49.246;9.100;2023-08-12T00:07:49;98932.34;;;22.80;92.23
14120;BME280;7138;49.246;9.100;2023-08-12T00:10:15;98931.72;;;22.75;92.66
14120;BME280;7138;49.246;9.100;2023-08-12T00:12:41;98925.72;;;22.71;92.52
14120;BME280;7138;49.246;9.100;2023-08-12T00:15:09;98918.81;;;22.69;92.82
14120;BME280;7138;49.246;9.100;2023-08-12T00:17:36;98913.69;;;22.66;93.27
14120;BME280;7138;49.246;9.100;2023-08-12T00:20:04;98913.88;;;22.61;93.39
14120;BME280;7138;49.246;9.100;2023-08-12T00:22:37;98916.56;;;22.60;93.66
14120;BME280;7138;49.246;9.100;2023-08-12T00:25:05;98913.16;;;22.58;93.94
14120;BME280;7138;49.246;9.100;2023-08-12T00:27:31;98914.16;;;22.55;94.00
14120;BME280;7138;49.246;9.100;2023-08-12T00:29:57;98905.53;;;22.52;94.37
14120;BME280;7138;49.246;9.100;2023-08-12T00:32:23;98904.94;;;22.45;94.44
14120;BME280;7138;49.246;9.100;2023-08-12T00:34:49;98894.53;;;22.42;94.52
14120;BME280;7138;49.246;9.100;2023-08-12T00:37:14;98899.84;;;22.41;94.36
14120;BME280;7138;49.246;9.100;2023-08-12T00:39:42;98898.94;;;22.42;94.10
14120;BME280;7138;49.246;9.100;2023-08-12T00:42:07;98888.50;;;22.40;94.13
14120;BME280;7138;49.246;9.100;2023-08-12T00:44:33;98888.50;;;22.40;93.71
14120;BME280;7138;49.246;9.100;2023-08-12T00:46:59;98892.81;;;22.41;94.34
14120;BME280;7138;49.246;9.100;2023-08-12T00:49:26;98890.41;;;22.37;94.66
14120;BME280;7138;49.246;9.100;2023-08-12T00:51:53;98892.19;;;22.36;94.39
14120;BME280;7138;49.246;9.100;2023-08-12T00:54:22;98893.94;;;22.36;94.35
14120;BME280;7138;49.246;9.100;2023-08-12T00:56:51;98891.53;;;22.31;94.32
14120;BME280;7138;49.246;9.100;2023-08-12T00:59:20;98889.81;;;22.30;94.21
14120;BME280;7138;49.246;9.100;2023-08-12T01:01:47;98890.72;;;22.29;94.52
14120;BME280;7138;49.246;9.100;2023-08-12T01:04:13;98876.16;;;22.22;94.25
14120;BME280;7138;49.246;9.100;2023-08-12T01:06:39;98894.31;;;22.28;94.08
14120;BME280;7138;49.246;9.100;2023-08-12T01:09:07;98889.09;;;22.26;94.76
14120;BME280;7138;49.246;9.100;2023-08-12T01:11:39;98883.47;;;22.15;94.90
14120;BME280;7138;49.246;9.100;2023-08-12T01:14:21;98895.69;;;22.16;94.92
14120;BME280;7138;49.246;9.100;2023-08-12T01:16:55;98874.97;;;22.09;94.83
14120;BME280;7138;49.246;9.100;2023-08-12T01:19:32;98879.97;;;22.15;94.81
14120;BME280;7138;49.246;9.100;2023-08-12T01:22:02;98873.91;;;22.13;94.59
14120;BME280;7138;49.246;9.100;2023-08-12T01:24:34;98868.84;;;22.08;94.40
14120;BME280;7138;49.246;9.100;2023-08-12T01:27:01;98875.59;;;22.14;95.03
14120;BME280;7138;49.246;9.100;2023-08-12T01:29:27;98877.50;;;22.10;95.68
14120;BME280;7138;49.246;9.100;2023-08-12T01:32:00;98860.03;;;22.09;95.60
14120;BME280;7138;49.246;9.100;2023-08-12T01:34:42;98869.84;;;22.06;95.58
14120;BME280;7138;49.246;9.100;2023-08-12T01:37:14;98859.44;;;22.03;95.65
14120;BME280;7138;49.246;9.100;2023-08-12T01:39:46;98859.50;;;22.01;95.89
14120;BME280;7138;49.246;9.100;2023-08-12T01:42:13;98861.34;;;21.99;96.20
14120;BME280;7138;49.246;9.100;2023-08-12T01:44:40;98863.19;;;21.97;96.41
14120;BME280;7138;49.246;9.100;2023-08-12T01:47:08;98862.34;;;21.97;96.16
14120;BME280;7138;49.246;9.100;2023-08-12T01:49:34;98869.31;;;21.98;95.78
14120;BME280;7138;49.246;9.100;2023-08-12T01:52:00;98868.34;;;22.00;95.42
14120;BME280;7138;49.246;9.100;2023-08-12T01:54:26;98864.69;;;22.03;95.84
14120;BME280;7138;49.246;9.100;2023-08-12T01:56:53;98861.97;;;22.04;95.70
14120;BME280;7138;49.246;9.100;2023-08-12T01:59:19;98862.84;;;22.05;95.43
14120;BME280;7138;49.246;9.100;2023-08-12T02:01:45;98863.78;;;22.04;95.63
14120;BME280;7138;49.246;9.100;2023-08-12T02:04:11;98872.53;;;22.04;95.70
14120;BME280;7138;49.246;9.100;2023-08-12T02:06:36;98863.78;;;22.04;95.91
14120;BME280;7138;49.246;9.100;2023-08-12T02:09:02;98870.75;;;22.05;96.24
14120;BME280;7138;49.246;9.100;2023-08-12T02:11:28;98864.63;;;22.04;96.45
14120;BME280;7138;49.246;9.100;2023-08-12T02:13:55;98876.97;;;22.04;96.43
14120;BME280;7138;49.246;9.100;2023-08-12T02:16:21;98869.97;;;22.03;96.33
14120;BME280;7138;49.246;9.100;2023-08-12T02:18:47;98865.47;;;22.05;96.66
14120;BME280;7138;49.246;9.100;2023-08-12T02:21:13;98868.84;;;22.08;96.92
14120;BME280;7138;49.246;9.100;2023-08-12T02:23:39;98865.28;;;22.09;96.57
14120;BME280;7138;49.246;9.100;2023-08-12T02:26:05;98868.78;;;22.10;96.50
14120;BME280;7138;49.246;9.100;2023-08-12T02:28:30;98854.66;;;22.11;96.96
14120;BME280;7138;49.246;9.100;2023-08-12T02:30:58;98849.47;;;22.09;96.94
14120;BME280;7138;49.246;9.100;2023-08-12T02:33:23;98848.63;;;22.09;96.91
14120;BME280;7138;49.246;9.100;2023-08-12T02:35:53;98840.72;;;22.09;96.89
14120;BME280;7138;49.246;9.100;2023-08-12T02:38:19;98844.13;;;22.11;96.72
14120;BME280;7138;49.246;9.100;2023-08-12T02:40:48;98848.53;;;22.10;96.70
14120;BME280;7138;49.246;9.100;2023-08-12T02:43:14;98846.78;;;22.11;96.25
14120;BME280;7138;49.246;9.100;2023-08-12T02:45:40;98836.19;;;22.12;96.87
14120;BME280;7138;49.246;9.100;2023-08-12T02:48:09;98836.94;;;22.14;96.61
14120;BME280;7138;49.246;9.100;2023-08-12T02:50:34;98845.72;;;22.15;96.39
14120;BME280;7138;49.246;9.100;2023-08-12T02:53:00;98836.94;;;22.14;96.20
14120;BME280;7138;49.246;9.100;2023-08-12T02:55:26;98837.72;;;22.16;96.39
14120;BME280;7138;49.246;9.100;2023-08-12T02:57:52;98838.53;;;22.18;96.56
14120;BME280;7138;49.246;9.100;2023-08-12T03:00:18;98840.22;;;22.19;96.63
14120;BME280;7138;49.246;9.100;2023-08-12T03:02:44;98834.03;;;22.20;97.33
14120;BME280;7138;49.246;9.100;2023-08-12T03:05:11;98829.63;;;22.21;97.38
14120;BME280;7138;49.246;9.100;2023-08-12T03:07:37;98834.00;;;22.22;97.81
14120;BME280;7138;49.246;9.100;2023-08-12T03:10:04;98833.13;;;22.21;97.65
14120;BME280;7138;49.246;9.100;2023-08-12T03:12:30;98833.31;;;22.17;98.77
14120;BME280;7138;49.246;9.100;2023-08-12T03:14:56;98823.72;;;22.16;98.31
14120;BME280;7138;49.246;9.100;2023-08-12T03:17:22;98830.63;;;22.18;98.70
14120;BME280;7138;49.246;9.100;2023-08-12T03:19:47;98812.47;;;22.12;98.53
14120;BME280;7138;49.246;9.100;2023-08-12T03:22:16;98824.50;;;22.18;98.51
14120;BME280;7138;49.246;9.100;2023-08-12T03:24:42;98821.88;;;22.18;98.92
14120;BME280;7138;49.246;9.100;2023-08-12T03:27:07;98821.88;;;22.18;98.93
14120;BME280;7138;49.246;9.100;2023-08-12T03:29:33;98827.13;;;22.18;99.10
14120;BME280;7138;49.246;9.100;2023-08-12T03:31:59;98825.28;;;22.20;99.02
14120;BME280;7138;49.246;9.100;2023-08-12T03:36:53;98824.41;;;22.19;98.87
14120;BME280;7138;49.246;9.100;2023-08-12T03:39:20;98828.00;;;22.18;98.89
14120;BME280;7138;49.246;9.100;2023-08-12T03:41:46;98828.84;;;22.19;98.65
14120;BME280;7138;49.246;9.100;2023-08-12T03:44:12;98831.50;;;22.19;99.14
14120;BME280;7138;49.246;9.100;2023-08-12T03:46:38;98832.19;;;22.22;99.20
14120;BME280;7138;49.246;9.100;2023-08-12T03:49:04;98830.41;;;22.23;99.49
14120;BME280;7138;49.246;9.100;2023-08-12T03:51:30;98835.75;;;22.21;98.93
14120;BME280;7138;49.246;9.100;2023-08-12T03:53:55;98828.00;;;22.18;99.36
14120;BME280;7138;49.246;9.100;2023-08-12T03:56:24;98832.53;;;22.15;99.30
14120;BME280;7138;49.246;9.100;2023-08-12T03:58:51;98831.25;;;22.05;100.00
14120;BME280;7138;49.246;9.100;2023-08-12T04:01:17;98834.81;;;22.04;100.00
14120;BME280;7138;49.246;9.100;2023-08-12T04:03:42;98837.44;;;22.04;99.69
14120;BME280;7138;49.246;9.100;2023-08-12T04:06:08;98842.59;;;22.07;99.88
14120;BME280;7138;49.246;9.100;2023-08-12T04:08:34;98836.38;;;22.08;100.00
14120;BME280;7138;49.246;9.100;2023-08-12T04:11:00;98842.44;;;22.10;100.00
14120;BME280;7138;49.246;9.100;2023-08-12T04:13:27;98847.56;;;22.13;99.82
14120;BME280;7138;49.246;9.100;2023-08-12T04:15:53;98845.84;;;22.12;100.00
14120;BME280;7138;49.246;9.100;2023-08-12T04:18:20;98829.56;;;22.04;100.00
14120;BME280;7138;49.246;9.100;2023-08-12T04:20:46;98827.97;;;22.00;100.00
14120;BME280;7138;49.246;9.100;2023-08-12T04:23:12;98834.16;;;21.99;100.00
14120;BME280;7138;49.246;9.100;2023-08-12T04:25:38;98839.38;;;22.00;100.00
14120;BME280;7138;49.246;9.100;2023-08-12T04:28:04;98839.28;;;22.02;100.00
14120;BME280;7138;49.246;9.100;2023-08-12T04:30:32;98841.00;;;22.03;100.00
14120;BME280;7138;49.246;9.100;2023-08-12T04:32:58;98842.72;;;22.04;100.00
14120;BME280;7138;49.246;9.100;2023-08-12T04:35:24;98844.50;;;22.03;100.00
14120;BME280;7138;49.246;9.100;2023-08-12T04:37:50;98841.00;;;22.03;100.00
14120;BME280;7138;49.246;9.100;2023-08-12T04:40:16;98834.81;;;22.04;100.00
14120;BME280;7138;49.246;9.100;2023-08-12T04:42:42;98836.38;;;22.08;100.00
14120;BME280;7138;49.246;9.100;2023-08-12T04:45:09;98835.47;;;22.09;100.00
14120;BME280;7138;49.246;9.100;2023-08-12T04:47:36;98840.59;;;22.12;100.00
14120;BME280;7138;49.246;9.100;2023-08-12T04:50:03;98833.53;;;22.12;100.00
14120;BME280;7138;49.246;9.100;2023-08-12T04:52:29;98824.78;;;22.12;100.00
14120;BME280;7138;49.246;9.100;2023-08-12T04:54:55;98829.13;;;22.13;100.00
14120;BME280;7138;49.246;9.100;2023-08-12T04:57:21;98826.50;;;22.13;100.00
14120;BME280;7138;49.246;9.100;2023-08-12T04:59:47;98824.84;;;22.10;100.00
14120;BME280;7138;49.246;9.100;2023-08-12T05:02:12;98816.88;;;22.12;100.00
14120;BME280;7138;49.246;9.100;2023-08-12T05:04:40;98833.47;;;22.14;100.00
14120;BME280;7138;49.246;9.100;2023-08-12T05:07:06;98833.25;;;22.18;100.00
14120;BME280;7138;49.246;9.100;2023-08-12T05:09:32;98821.72;;;22.21;100.00
14120;BME280;7138;49.246;9.100;2023-08-12T05:11:58;98820.94;;;22.19;100.00
14120;BME280;7138;49.246;9.100;2023-08-12T05:14:23;98825.41;;;22.17;100.00
14120;BME280;7138;49.246;9.100;2023-08-12T05:16:49;98825.66;;;22.12;100.00
14120;BME280;7138;49.246;9.100;2023-08-12T05:19:15;98828.19;;;22.14;100.00
14120;BME280;7138;49.246;9.100;2023-08-12T05:21:42;98853.47;;;22.18;100.00
14120;BME280;7138;49.246;9.100;2023-08-12T05:24:08;98849.00;;;22.20;100.00
14120;BME280;7138;49.246;9.100;2023-08-12T05:26:36;98841.81;;;22.23;100.00
14120;BME280;7138;49.246;9.100;2023-08-12T05:29:03;98833.84;;;22.25;100.00
14120;BME280;7138;49.246;9.100;2023-08-12T05:31:29;98839.13;;;22.25;100.00
14120;BME280;7138;49.246;9.100;2023-08-12T05:33:55;98824.22;;;22.24;100.00
14120;BME280;7138;49.246;9.100;2023-08-12T05:36:21;98821.72;;;22.21;100.00
14120;BME280;7138;49.246;9.100;2023-08-12T05:38:48;98820.88;;;22.20;100.00
14120;BME280;7138;49.246;9.100;2023-08-12T05:41:14;98833.13;;;22.21;100.00
14120;BME280;7138;49.246;9.100;2023-08-12T05:43:39;98841.66;;;22.26;100.00
14120;BME280;7138;49.246;9.100;2023-08-12T05:46:05;98835.41;;;22.29;100.00
14120;BME280;7138;49.246;9.100;2023-08-12T05:48:31;98836.19;;;22.31;100.00
14120;BME280;7138;49.246;9.100;2023-08-12T05:50:57;98838.69;;;22.34;100.00
14120;BME280;7138;49.246;9.100;2023-08-12T05:53:23;98840.25;;;22.38;100.00
14120;BME280;7138;49.246;9.100;2023-08-12T05:55:50;98832.28;;;22.40;100.00
14120;BME280;7138;49.246;9.100;2023-08-12T05:58:16;98827.06;;;22.38;100.00
14120;BME280;7138;49.246;9.100;2023-08-12T06:00:42;98822.50;;;22.42;100.00
14120;BME280;7138;49.246;9.100;2023-08-12T06:03:11;98832.78;;;22.48;100.00
14120;BME280;7138;49.246;9.100;2023-08-12T06:05:37;98836.13;;;22.51;100.00
14120;BME280;7138;49.246;9.100;2023-08-12T06:08:03;98834.34;;;22.52;100.00
14120;BME280;7138;49.246;9.100;2023-08-12T06:10:29;98829.66;;;22.58;100.00
14120;BME280;7138;49.246;9.100;2023-08-12T06:12:56;98828.44;;;22.65;99.85
14120;BME280;7138;49.246;9.100;2023-08-12T06:15:22;98830.78;;;22.71;98.63
14120;BME280;7138;49.246;9.100;2023-08-12T06:17:48;98833.44;;;22.71;97.56
14120;BME280;7138;49.246;9.100;2023-08-12T06:20:14;98834.53;;;22.67;97.35
14120;BME280;7138;49.246;9.100;2023-08-12T06:22:40;98837.78;;;22.72;98.11
14120;BME280;7138;49.246;9.100;2023-08-12T06:25:07;98835.72;;;22.79;98.59
14120;BME280;7138;49.246;9.100;2023-08-12T06:27:33;98838.19;;;23.01;99.70
14120;BME280;7138;49.246;9.100;2023-08-12T06:30:00;98845.50;;;23.30;98.62
14120;BME280;7138;49.246;9.100;2023-08-12T06:32:26;98846.78;;;23.57;97.49
14120;BME280;7138;49.246;9.100;2023-08-12T06:34:52;98842.91;;;23.81;96.10
14120;BME280;7138;49.246;9.100;2023-08-12T06:37:17;98845.34;;;24.02;95.30
14120;BME280;7138;49.246;9.100;2023-08-12T06:39:43;98847.84;;;24.22;95.13
14120;BME280;7138;49.246;9.100;2023-08-12T06:42:09;98847.78;;;24.39;94.34
14120;BME280;7138;49.246;9.100;2023-08-12T06:44:35;98839.25;;;24.50;92.68
14120;BME280;7138;49.246;9.100;2023-08-12T06:47:02;98843.44;;;24.54;91.65
14120;BME280;7138;49.246;9.100;2023-08-12T06:49:28;98841.66;;;24.54;91.35
14120;BME280;7138;49.246;9.100;2023-08-12T06:51:54;98834.34;;;24.59;91.62
14120;BME280;7138;49.246;9.100;2023-08-12T06:54:19;98835.00;;;24.63;92.31
14120;BME280;7138;49.246;9.100;2023-08-12T06:56:48;98837.97;;;24.72;92.34
14120;BME280;7138;49.246;9.100;2023-08-12T06:59:14;98844.34;;;24.85;91.19
14120;BME280;7138;49.246;9.100;2023-08-12T07:01:40;98844.41;;;24.99;91.40
14120;BME280;7138;49.246;9.100;2023-08-12T07:04:07;98837.97;;;25.19;92.51
14120;BME280;7138;49.246;9.100;2023-08-12T07:06:33;98836.31;;;25.32;90.13
14120;BME280;7138;49.246;9.100;2023-08-12T07:08:59;98842.09;;;25.54;91.26
14120;BME280;7138;49.246;9.100;2023-08-12T07:11:25;98845.75;;;25.82;91.05
14120;BME280;7138;49.246;9.100;2023-08-12T07:13:51;98837.84;;;26.10;89.53
14120;BME280;7138;49.246;9.100;2023-08-12T07:16:16;98838.34;;;26.31;86.87
14120;BME280;7138;49.246;9.100;2023-08-12T07:18:42;98832.03;;;26.60;88.91
14120;BME280;7138;49.246;9.100;2023-08-12T07:21:09;98832.75;;;26.90;86.93
14120;BME280;7138;49.246;9.100;2023-08-12T07:23:35;98830.47;;;26.98;84.38
14120;BME280;7138;49.246;9.100;2023-08-12T07:26:01;98833.59;;;27.05;84.07
14120;BME280;7138;49.246;9.100;2023-08-12T07:28:27;98831.94;;;27.17;84.28
14120;BME280;7138;49.246;9.100;2023-08-12T07:30:53;98831.22;;;27.27;83.40
14120;BME280;7138;49.246;9.100;2023-08-12T07:33:20;98840.41;;;27.36;83.17
14120;BME280;7138;49.246;9.100;2023-08-12T07:35:47;98832.09;;;27.40;83.56
14120;BME280;7138;49.246;9.100;2023-08-12T07:38:14;98840.44;;;27.48;83.23
14120;BME280;7138;49.246;9.100;2023-08-12T07:40:40;98849.06;;;27.52;84.12
14120;BME280;7138;49.246;9.100;2023-08-12T07:43:06;98846.97;;;27.57;83.28
14120;BME280;7138;49.246;9.100;2023-08-12T07:45:32;98847.28;;;27.65;83.00
14120;BME280;7138;49.246;9.100;2023-08-12T07:47:58;98847.59;;;27.73;82.95
14120;BME280;7138;49.246;9.100;2023-08-12T07:50:24;98850.69;;;27.80;82.14
14120;BME280;7138;49.246;9.100;2023-08-12T07:52:50;98848.69;;;27.83;82.24
14120;BME280;7138;49.246;9.100;2023-08-12T07:55:18;98839.34;;;27.90;82.94
14120;BME280;7138;49.246;9.100;2023-08-12T07:57:45;98835.72;;;28.04;82.53
14120;BME280;7138;49.246;9.100;2023-08-12T08:00:12;98843.00;;;28.14;81.87
14120;BME280;7138;49.246;9.100;2023-08-12T08:02:38;98849.28;;;28.26;81.23
14120;BME280;7138;49.246;9.100;2023-08-12T08:05:05;98859.78;;;28.40;81.50
14120;BME280;7138;49.246;9.100;2023-08-12T08:07:31;98843.69;;;28.54;80.70
14120;BME280;7138;49.246;9.100;2023-08-12T08:09:57;98845.16;;;28.71;80.42
14120;BME280;7138;49.246;9.100;2023-08-12T08:12:25;98848.44;;;28.87;79.79
14120;BME280;7138;49.246;9.100;2023-08-12T08:14:51;98852.41;;;29.05;80.84
14120;BME280;7138;49.246;9.100;2023-08-12T08:17:16;98844.78;;;29.24;79.80
14120;BME280;7138;49.246;9.100;2023-08-12T08:19:42;98850.59;;;29.53;79.73
14120;BME280;7138;49.246;9.100;2023-08-12T08:22:08;98847.78;;;29.78;79.54
14120;BME280;7138;49.246;9.100;2023-08-12T08:24:34;98840.31;;;29.95;76.73
14120;BME280;7138;49.246;9.100;2023-08-12T08:27:00;98844.34;;;30.00;74.81
14120;BME280;7138;49.246;9.100;2023-08-12T08:29:27;98830.25;;;29.98;76.49
14120;BME280;7138;49.246;9.100;2023-08-12T08:31:53;98827.72;;;29.97;76.48
14120;BME280;7138;49.246;9.100;2023-08-12T08:34:19;98836.97;;;29.80;76.21
14120;BME280;7138;49.246;9.100;2023-08-12T08:36:45;98823.63;;;29.69;77.29
14120;BME280;7138;49.246;9.100;2023-08-12T08:39:11;98821.69;;;29.71;77.73
14120;BME280;7138;49.246;9.100;2023-08-12T08:41:39;98821.59;;;29.72;77.55
14120;BME280;7138;49.246;9.100;2023-08-12T08:44:08;98814.53;;;29.60;75.86
14120;BME280;7138;49.246;9.100;2023-08-12T08:46:35;98829.06;;;29.67;75.74
14120;BME280;7138;49.246;9.100;2023-08-12T08:49:04;98822.28;;;29.63;75.79
14120;BME280;7138;49.246;9.100;2023-08-12T08:51:32;98819.78;;;29.73;76.28
14120;BME280;7138;49.246;9.100;2023-08-12T08:53:58;98822.78;;;29.79;77.27
14120;BME280;7138;49.246;9.100;2023-08-12T08:56:25;98826.97;;;29.84;75.37
14120;BME280;7138;49.246;9.100;2023-08-12T08:58:51;98818.97;;;29.84;75.41
14120;BME280;7138;49.246;9.100;2023-08-12T09:01:20;98812.06;;;29.92;77.03
14120;BME280;7138;49.246;9.100;2023-08-12T09:03:51;98827.72;;;29.97;74.19
14120;BME280;7138;49.246;9.100;2023-08-12T09:06:20;98830.28;;;30.09;75.18
14120;BME280;7138;49.246;9.100;2023-08-12T09:08:51;98831.50;;;30.27;76.38
14120;BME280;7138;49.246;9.100;2023-08-12T09:11:18;98835.66;;;30.43;73.82
14120;BME280;7138;49.246;9.100;2023-08-12T09:13:45;98841.59;;;30.57;74.36
14120;BME280;7138;49.246;9.100;2023-08-12T09:16:11;98840.50;;;30.60;74.58
14120;BME280;7138;49.246;9.100;2023-08-12T09:18:37;98836.25;;;30.57;73.27
14120;BME280;7138;49.246;9.100;2023-08-12T09:21:05;98838.09;;;30.57;72.44
14120;BME280;7138;49.246;9.100;2023-08-12T09:23:35;98826.91;;;30.63;74.89
14120;BME280;7138;49.246;9.100;2023-08-12T09:26:01;98830.75;;;30.81;74.08
14120;BME280;7138;49.246;9.100;2023-08-12T09:28:27;98833.66;;;30.89;75.65
14120;BME280;7138;49.246;9.100;2023-08-12T09:30:53;98830.75;;;31.03;74.55
14120;BME280;7138;49.246;9.100;2023-08-12T09:33:25;98829.75;;;31.15;74.26
14120;BME280;7138;49.246;9.100;2023-08-12T09:35:52;98834.69;;;31.20;73.05
14120;BME280;7138;49.246;9.100;2023-08-12T09:38:21;98837.72;;;31.26;69.96
14120;BME280;7138;49.246;9.100;2023-08-12T09:40:47;98830.28;;;31.30;72.46
14120;BME280;7138;49.246;9.100;2023-08-12T09:43:13;98836.88;;;31.47;73.49
14120;BME280;7138;49.246;9.100;2023-08-12T09:45:40;98827.34;;;31.65;73.48
14120;BME280;7138;49.246;9.100;2023-08-12T09:48:06;98835.06;;;31.79;72.89
14120;BME280;7138;49.246;9.100;2023-08-12T09:50:35;98820.75;;;31.89;72.31
14120;BME280;7138;49.246;9.100;2023-08-12T09:53:02;98810.19;;;31.88;74.50
14120;BME280;7138;49.246;9.100;2023-08-12T09:55:35;98810.56;;;31.83;72.97
14120;BME280;7138;49.246;9.100;2023-08-12T09:58:03;98806.41;;;31.90;70.67
14120;BME280;7138;49.246;9.100;2023-08-12T10:00:32;98802.09;;;31.99;72.04
14120;BME280;7138;49.246;9.100;2023-08-12T10:03:02;98797.66;;;32.09;72.47
14120;BME280;7138;49.246;9.100;2023-08-12T10:05:31;98800.13;;;32.22;71.96
14120;BME280;7138;49.246;9.100;2023-08-12T10:07:57;98802.69;;;32.33;70.82
14120;BME280;7138;49.246;9.100;2023-08-12T10:10:25;98791.47;;;32.48;70.06
14120;BME280;7138;49.246;9.100;2023-08-12T10:12:53;98781.56;;;32.70;71.39
14120;BME280;7138;49.246;9.100;2023-08-12T10:15:21;98767.44;;;32.58;69.07
14120;BME280;7138;49.246;9.100;2023-08-12T10:17:48;98775.78;;;32.74;70.46
14120;BME280;7138;49.246;9.100;2023-08-12T10:20:21;98773.69;;;32.87;70.51
14120;BME280;7138;49.246;9.100;2023-08-12T10:22:50;98778.66;;;32.92;69.93
14120;BME280;7138;49.246;9.100;2023-08-12T10:25:18;98783.28;;;32.99;67.73
14120;BME280;7138;49.246;9.100;2023-08-12T10:27:47;98777.53;;;33.04;67.82
14120;BME280;7138;49.246;9.100;2023-08-12T10:30:15;98775.28;;;33.09;67.77
14120;BME280;7138;49.246;9.100;2023-08-12T10:32:41;98790.94;;;33.23;70.14
14120;BME280;7138;49.246;9.100;2023-08-12T10:35:09;98791.94;;;33.41;69.19
14120;BME280;7138;49.246;9.100;2023-08-12T10:37:35;98785.88;;;33.59;66.55
14120;BME280;7138;49.246;9.100;2023-08-12T10:40:04;98785.16;;;33.76;69.64
14120;BME280;7138;49.246;9.100;2023-08-12T10:42:45;98776.63;;;33.90;66.43
14120;BME280;7138;49.246;9.100;2023-08-12T10:45:15;98778.44;;;33.99;66.70
14120;BME280;7138;49.246;9.100;2023-08-12T10:47:42;98789.31;;;34.07;65.34
14120;BME280;7138;49.246;9.100;2023-08-12T10:50:21;98795.19;;;34.20;67.07
14120;BME280;7138;49.246;9.100;2023-08-12T10:52:48;98785.19;;;34.22;65.58
14120;BME280;7138;49.246;9.100;2023-08-12T10:55:18;98788.56;;;34.24;66.68
14120;BME280;7138;49.246;9.100;2023-08-12T10:57:45;98787.56;;;34.25;66.94
14120;BME280;7138;49.246;9.100;2023-08-12T11:00:15;98784.44;;;34.30;65.70
14120;BME280;7138;49.246;9.100;2023-08-12T11:02:44;98775.47;;;34.39;67.76
14120;BME280;7138;49.246;9.100;2023-08-12T11:05:11;98788.53;;;34.34;66.26
14120;BME280;7138;49.246;9.100;2023-08-12T11:07:40;98786.63;;;34.17;63.42
14120;BME280;7138;49.246;9.100;2023-08-12T11:10:13;98785.47;;;34.19;67.11
14120;BME280;7138;49.246;9.100;2023-08-12T11:12:41;98774.28;;;34.24;64.84
14120;BME280;7138;49.246;9.100;2023-08-12T11:15:08;98776.06;;;34.33;67.80
14120;BME280;7138;49.246;9.100;2023-08-12T11:17:39;98767.59;;;34.37;64.63
14120;BME280;7138;49.246;9.100;2023-08-12T11:20:08;98765.97;;;34.44;64.30
14120;BME280;7138;49.246;9.100;2023-08-12T11:22:36;98769.81;;;34.42;64.74
14120;BME280;7138;49.246;9.100;2023-08-12T11:25:04;98761.66;;;34.34;63.24
14120;BME280;7138;49.246;9.100;2023-08-12T11:27:45;98770.44;;;34.26;62.59
14120;BME280;7138;49.246;9.100;2023-08-12T11:30:13;98768.41;;;34.11;62.72
14120;BME280;7138;49.246;9.100;2023-08-12T11:32:43;98766.03;;;33.98;62.25
14120;BME280;7138;49.246;9.100;2023-08-12T11:35:12;98766.81;;;33.62;62.32
14120;BME280;7138;49.246;9.100;2023-08-12T11:37:39;98765.97;;;33.42;63.41
14120;BME280;7138;49.246;9.100;2023-08-12T11:40:08;98772.06;;;33.15;63.44
14120;BME280;7138;49.246;9.100;2023-08-12T11:42:35;98769.59;;;32.93;64.47
14120;BME280;7138;49.246;9.100;2023-08-12T11:45:01;98784.81;;;32.73;64.69
14120;BME280;7138;49.246;9.100;2023-08-12T11:47:27;98780.84;;;32.58;66.01
14120;BME280;7138;49.246;9.100;2023-08-12T11:49:54;98764.97;;;32.45;67.36
14120;BME280;7138;49.246;9.100;2023-08-12T11:52:20;98758.63;;;32.37;68.73
14120;BME280;7138;49.246;9.100;2023-08-12T11:54:49;98757.34;;;32.31;68.99
14120;BME280;7138;49.246;9.100;2023-08-12T11:57:15;98767.97;;;32.12;69.28
14120;BME280;7138;49.246;9.100;2023-08-12T11:59:41;98785.25;;;32.08;70.51
14120;BME280;7138;49.246;9.100;2023-08-12T12:02:07;98770.91;;;31.88;71.96
14120;BME280;7138;49.246;9.100;2023-08-12T12:04:34;98819.09;;;31.98;71.55
14120;BME280;7138;49.246;9.100;2023-08-12T12:07:01;98844.56;;;31.92;72.02
14120;BME280;7138;49.246;9.100;2023-08-12T12:09:31;98848.44;;;31.79;72.75
14120;BME280;7138;49.246;9.100;2023-08-12T12:11:58;98843.53;;;31.63;74.25
14120;BME280;7138;49.246;9.100;2023-08-12T12:14:25;98830.56;;;31.48;74.98
14120;BME280;7138;49.246;9.100;2023-08-12T12:16:51;98834.28;;;31.35;77.00
14120;BME280;7138;49.246;9.100;2023-08-12T12:19:18;98843.69;;;31.19;77.00
14120;BME280;7138;49.246;9.100;2023-08-12T12:21:48;98846.75;;;31.14;77.40
14120;BME280;7138;49.246;9.100;2023-08-12T12:24:15;98849.69;;;30.89;75.50
14120;BME280;7138;49.246;9.100;2023-08-12T12:26:42;98834.44;;;30.69;76.49
14120;BME280;7138;49.246;9.100;2023-08-12T12:29:08;98816.34;;;30.50;75.86
14120;BME280;7138;49.246;9.100;2023-08-12T12:31:37;98817.94;;;30.42;76.18
14120;BME280;7138;49.246;9.100;2023-08-12T12:34:04;98821.66;;;30.28;76.11
14120;BME280;7138;49.246;9.100;2023-08-12T12:36:30;98813.41;;;30.20;75.88
14120;BME280;7138;49.246;9.100;2023-08-12T12:38:56;98820.47;;;30.21;79.53
14120;BME280;7138;49.246;9.100;2023-08-12T12:41:24;98826.41;;;30.24;78.12
14120;BME280;7138;49.246;9.100;2023-08-12T12:43:49;98821.56;;;30.29;78.98
14120;BME280;7138;49.246;9.100;2023-08-12T12:46:15;98821.06;;;30.35;77.72
14120;BME280;7138;49.246;9.100;2023-08-12T12:48:42;98826.06;;;30.40;79.20
14120;BME280;7138;49.246;9.100;2023-08-12T12:51:07;98822.91;;;30.46;77.85
14120;BME280;7138;49.246;9.100;2023-08-12T12:53:33;98807.75;;;30.47;75.18
14120;BME280;7138;49.246;9.100;2023-08-12T12:55:59;98814.03;;;30.57;75.75
14120;BME280;7138;49.246;9.100;2023-08-12T12:58:31;98820.47;;;30.65;77.00
14120;BME280;7138;49.246;9.100;2023-08-12T13:00:57;98827.00;;;30.61;76.83
14120;BME280;7138;49.246;9.100;2023-08-12T13:03:22;98834.44;;;30.58;77.06
14120;BME280;7138;49.246;9.100;2023-08-12T13:05:50;98839.03;;;30.56;77.66
14120;BME280;7138;49.246;9.100;2023-08-12T13:08:16;98848.75;;;30.57;78.75
14120;BME280;7138;49.246;9.100;2023-08-12T13:10:42;98851.53;;;30.55;78.29